sensor_id;sensor_type;location;lat;lon;timestamp;P1;durP1;ratioP1;P2;durP2;ratioP2
8580;SDS011;4328;48.622;9.230;2023-11-19T08:47:44;0.50;;;0.50;;
8580;SDS011;4328;48.622;9.230;2023-11-19T08:50:11;0.50;;;0.50;;
8580;SDS011;4328;48.622;9.230;2023-11-19T08:52:37;1.07;;;0.40;;
8580;SDS011;4328;48.622;9.230;2023-11-19T08:55:04;0.70;;;0.70;;
8580;SDS011;4328;48.622;9.230;2023-11-19T08:57:31;1.37;;;0.70;;
8580;SDS011;4328;48.622;9.230;2023-11-19T08:59:57;1.20;;;0.53;;
8580;SDS011;4328;48.622;9.230;2023-11-19T09:02:24;1.03;;;0.70;;
8580;SDS011;4328;48.622;9.230;2023-11-19T09:04:51;0.73;;;0.70;;
8580;SDS011;4328;48.622;9.230;2023-11-19T09:07:18;3.27;;;0.60;;
8580;SDS011;4328;48.622;9.230;2023-11-19T09:09:45;0.60;;;0.40;;
8580;SDS011;4328;48.622;9.230;2023-11-19T09:12:11;0.70;;;0.70;;
8580;SDS011;4328;48.622;9.230;2023-11-19T09:14:39;0.40;;;0.40;;
8580;SDS011;4328;48.622;9.230;2023-11-19T09:17:05;0.60;;;0.60;;
8580;SDS011;4328;48.622;9.230;2023-11-19T09:19:32;1.33;;;0.50;;
8580;SDS011;4328;48.622;9.230;2023-11-19T09:22:00;0.50;;;0.50;;
8580;SDS011;4328;48.622;9.230;2023-11-19T09:24:26;0.60;;;0.50;;
8580;SDS011;4328;48.622;9.230;2023-11-19T09:26:52;1.07;;;0.70;;
8580;SDS011;4328;48.622;9.230;2023-11-19T09:29:20;0.70;;;0.70;;
8580;SDS011;4328;48.622;9.230;2023-11-19T09:31:46;1.90;;;0.80;;
8580;SDS011;4328;48.622;9.230;2023-11-19T09:34:12;0.73;;;0.70;;
8580;SDS011;4328;48.622;9.230;2023-11-19T09:36:39;0.57;;;0.50;;
8580;SDS011;4328;48.622;9.230;2023-11-19T09:39:10;0.50;;;0.50;;
8580;SDS011;4328;48.622;9.230;2023-11-19T09:41:36;1.43;;;0.60;;
8580;SDS011;4328;48.622;9.230;2023-11-19T09:44:03;0.60;;;0.60;;
8580;SDS011;4328;48.622;9.230;2023-11-19T09:46:29;1.40;;;0.33;;
8580;SDS011;4328;48.622;9.230;2023-11-19T09:48:56;0.73;;;0.50;;
8580;SDS011;4328;48.622;9.230;2023-11-19T09:51:24;1.80;;;0.67;;
8580;SDS011;4328;48.622;9.230;2023-11-19T09:53:51;0.83;;;0.83;;
8580;SDS011;4328;48.622;9.230;2023-11-19T09:56:19;0.67;;;0.60;;
8580;SDS011;4328;48.622;9.230;2023-11-19T09:58:45;0.73;;;0.43;;
8580;SDS011;4328;48.622;9.230;2023-11-19T10:01:12;0.40;;;0.40;;
8580;SDS011;4328;48.622;9.230;2023-11-19T10:03:39;0.50;;;0.50;;
8580;SDS011;4328;48.622;9.230;2023-11-19T10:06:06;0.57;;;0.53;;
8580;SDS011;4328;48.622;9.230;2023-11-19T10:08:32;0.60;;;0.60;;
8580;SDS011;4328;48.622;9.230;2023-11-19T10:10:59;0.40;;;0.40;;
8580;SDS011;4328;48.622;9.230;2023-11-19T10:13:27;0.60;;;0.30;;
8580;SDS011;4328;48.622;9.230;2023-11-19T10:15:54;2.00;;;0.50;;
8580;SDS011;4328;48.622;9.230;2023-11-19T10:18:23;0.50;;;0.50;;
8580;SDS011;4328;48.622;9.230;2023-11-19T10:20:50;1.23;;;0.50;;
8580;SDS011;4328;48.622;9.230;2023-11-19T10:23:16;0.50;;;0.50;;
8580;SDS011;4328;48.622;9.230;2023-11-19T10:25:42;0.50;;;0.50;;
8580;SDS011;4328;48.622;9.230;2023-11-19T10:28:09;0.57;;;0.50;;
8580;SDS011;4328;48.622;9.230;2023-11-19T10:30:36;0.30;;;0.30;;
8580;SDS011;4328;48.622;9.230;2023-11-19T10:33:04;0.50;;;0.50;;
8580;SDS011;4328;48.622;9.230;2023-11-19T10:35:31;2.20;;;0.60;;
8580;SDS011;4328;48.622;9.230;2023-11-19T10:37:58;0.40;;;0.40;;
8580;SDS011;4328;48.622;9.230;2023-11-19T10:40:26;0.33;;;0.30;;
8580;SDS011;4328;48.622;9.230;2023-11-19T10:43:03;0.30;;;0.30;;
8580;SDS011;4328;48.622;9.230;2023-11-19T10:45:29;1.43;;;0.40;;
8580;SDS011;4328;48.622;9.230;2023-11-19T10:47:57;0.40;;;0.40;;
8580;SDS011;4328;48.622;9.230;2023-11-19T10:50:24;0.50;;;0.23;;
8580;SDS011;4328;48.622;9.230;2023-11-19T10:52:51;1.13;;;0.20;;
8580;SDS011;4328;48.622;9.230;2023-11-19T10:55:18;0.57;;;0.30;;
8580;SDS011;4328;48.622;9.230;2023-11-19T10:57:47;1.37;;;0.40;;
8580;SDS011;4328;48.622;9.230;2023-11-19T11:00:15;1.17;;;0.35;;
8580;SDS011;4328;48.622;9.230;2023-11-19T11:02:45;0.32;;;0.30;;
8580;SDS011;4328;48.622;9.230;2023-11-19T11:05:17;0.40;;;0.30;;
8580;SDS011;4328;48.622;9.230;2023-11-19T11:07:45;0.32;;;0.30;;
8580;SDS011;4328;48.622;9.230;2023-11-19T11:10:11;0.30;;;0.20;;
8580;SDS011;4328;48.622;9.230;2023-11-19T11:12:38;0.10;;;0.10;;
